sensor_id;sensor_type;location;lat;lon;timestamp;pressure;altitude;pressure_sealevel;temperature;humidity
70781;BME280;72716;48.814;2.126;2024-01-30T00:02:13;101250.88;;;10.25;100.00
70781;BME280;72716;48.814;2.126;2024-01-30T00:04:39;101244.75;;;10.26;100.00
70781;BME280;72716;48.814;2.126;2024-01-30T00:07:04;101245.69;;;10.28;100.00
70781;BME280;72716;48.814;2.126;2024-01-30T00:09:29;101243.91;;;10.27;100.00
70781;BME280;72716;48.814;2.126;2024-01-30T00:11:55;101244.78;;;10.27;100.00
70781;BME280;72716;48.814;2.126;2024-01-30T00:14:21;101248.31;;;10.31;100.00
70781;BME280;72716;48.814;2.126;2024-01-30T00:16:46;101250.94;;;10.31;100.00
70781;BME280;72716;48.814;2.126;2024-01-30T00:19:12;101248.28;;;10.28;100.00
70781;BME280;72716;48.814;2.126;2024-01-30T00:21:37;101253.50;;;10.26;100.00
70781;BME280;72716;48.814;2.126;2024-01-30T00:24:03;101254.34;;;10.25;100.00
70781;BME280;72716;48.814;2.126;2024-01-30T00:26:28;101256.13;;;10.28;100.00
70781;BME280;72716;48.814;2.126;2024-01-30T00:28:54;101257.81;;;10.24;100.00
70781;BME280;72716;48.814;2.126;2024-01-30T00:31:19;101262.16;;;10.24;100.00
70781;BME280;72716;48.814;2.126;2024-01-30T00:33:44;101257.84;;;10.26;100.00
70781;BME280;72716;48.814;2.126;2024-01-30T00:36:10;101256.25;;;10.37;100.00
70781;BME280;72716;48.814;2.126;2024-01-30T00:38:36;101255.50;;;10.46;100.00
70781;BME280;72716;48.814;2.126;2024-01-30T00:41:01;101255.50;;;10.46;100.00
70781;BME280;72716;48.814;2.126;2024-01-30T00:43:27;101253.97;;;10.58;100.00
70781;BME280;72716;48.814;2.126;2024-01-30T00:45:53;101253.16;;;10.66;100.00
70781;BME280;72716;48.814;2.126;2024-01-30T00:48:19;101259.31;;;10.70;100.00
70781;BME280;72716;48.814;2.126;2024-01-30T00:50:44;101263.56;;;10.60;100.00
70781;BME280;72716;48.814;2.126;2024-01-30T00:53:10;101265.50;;;10.75;100.00
70781;BME280;72716;48.814;2.126;2024-01-30T00:55:35;101263.97;;;10.95;100.00
70781;BME280;72716;48.814;2.126;2024-01-30T00:58:01;101252.72;;;11.00;100.00
70781;BME280;72716;48.814;2.126;2024-01-30T01:00:26;101257.00;;;10.93;100.00
70781;BME280;72716;48.814;2.126;2024-01-30T01:02:55;101263.03;;;10.88;100.00
70781;BME280;72716;48.814;2.126;2024-01-30T01:05:20;101258.72;;;10.91;100.00
70781;BME280;72716;48.814;2.126;2024-01-30T01:07:45;101256.91;;;10.87;100.00
70781;BME280;72716;48.814;2.126;2024-01-30T01:10:12;101258.59;;;10.82;100.00
70781;BME280;72716;48.814;2.126;2024-01-30T01:12:39;101249.91;;;10.85;100.00
70781;BME280;72716;48.814;2.126;2024-01-30T01:15:05;101247.28;;;10.85;100.00
70781;BME280;72716;48.814;2.126;2024-01-30T01:17:30;101249.94;;;10.86;100.00
70781;BME280;72716;48.814;2.126;2024-01-30T13:54:40;101610.88;;;10.64;100.00
70781;BME280;72716;48.814;2.126;2024-01-30T13:57:05;101613.69;;;10.75;100.00
70781;BME280;72716;48.814;2.126;2024-01-30T13:59:32;101619.09;;;10.85;100.00
70781;BME280;72716;48.814;2.126;2024-01-30T14:01:58;101625.41;;;10.98;100.00
70781;BME280;72716;48.814;2.126;2024-01-30T14:04:23;101629.34;;;10.72;100.00
70781;BME280;72716;48.814;2.126;2024-01-30T14:06:49;101627.91;;;10.43;100.00
70781;BME280;72716;48.814;2.126;2024-01-30T14:09:14;101624.25;;;10.35;100.00
70781;BME280;72716;48.814;2.126;2024-01-30T14:11:41;101633.34;;;10.53;100.00
70781;BME280;72716;48.814;2.126;2024-01-30T14:14:06;101629.19;;;10.19;100.00
70781;BME280;72716;48.814;2.126;2024-01-30T14:16:32;101628.72;;;10.41;100.00
70781;BME280;72716;48.814;2.126;2024-01-30T14:18:57;101649.47;;;10.75;100.00
70781;BME280;72716;48.814;2.126;2024-01-30T14:21:22;101641.44;;;10.24;100.00
70781;BME280;72716;48.814;2.126;2024-01-30T14:23:49;101644.38;;;10.39;100.00
70781;BME280;72716;48.814;2.126;2024-01-30T14:26:14;101643.59;;;10.43;100.00
70781;BME280;72716;48.814;2.126;2024-01-30T14:28:39;101653.56;;;10.62;100.00
70781;BME280;72716;48.814;2.126;2024-01-30T14:31:05;101645.44;;;10.48;100.00
70781;BME280;72716;48.814;2.126;2024-01-30T14:33:30;101657.41;;;10.36;100.00
70781;BME280;72716;48.814;2.126;2024-01-30T14:35:56;101658.72;;;10.57;100.00
70781;BME280;72716;48.814;2.126;2024-01-30T14:38:21;101656.75;;;10.47;100.00
70781;BME280;72716;48.814;2.126;2024-01-30T14:40:46;101662.31;;;10.20;100.00
70781;BME280;72716;48.814;2.126;2024-01-30T14:43:12;101661.16;;;10.48;100.00
70781;BME280;72716;48.814;2.126;2024-01-30T14:45:39;101665.47;;;10.46;100.00
70781;BME280;72716;48.814;2.126;2024-01-30T14:48:04;101664.28;;;10.31;100.00
70781;BME280;72716;48.814;2.126;2024-01-30T14:50:30;101670.81;;;10.10;100.00
70781;BME280;72716;48.814;2.126;2024-01-30T14:52:55;101677.88;;;10.14;100.00
70781;BME280;72716;48.814;2.126;2024-01-30T14:55:21;101668.66;;;10.33;100.00
70781;BME280;72716;48.814;2.126;2024-01-30T14:57:46;101672.41;;;10.45;100.00
70781;BME280;72716;48.814;2.126;2024-01-30T15:00:12;101680.09;;;10.37;100.00
70781;BME280;72716;48.814;2.126;2024-01-30T15:02:39;101677.66;;;10.45;100.00
70781;BME280;72716;48.814;2.126;2024-01-30T15:05:04;101681.50;;;10.19;100.00
70781;BME280;72716;48.814;2.126;2024-01-30T15:07:30;101682.59;;;10.31;100.00
70781;BME280;72716;48.814;2.126;2024-01-30T15:09:55;101679.41;;;10.46;100.00
70781;BME280;72716;48.814;2.126;2024-01-30T15:12:20;101679.00;;;10.67;100.00
70781;BME280;72716;48.814;2.126;2024-01-30T15:14:46;101687.31;;;10.94;100.00
70781;BME280;72716;48.814;2.126;2024-01-30T15:17:18;101677.69;;;10.91;100.00
70781;BME280;72716;48.814;2.126;2024-01-30T15:19:46;101684.84;;;11.53;100.00
70781;BME280;72716;48.814;2.126;2024-01-30T15:22:12;101693.19;;;11.84;100.00
70781;BME280;72716;48.814;2.126;2024-01-30T15:24:37;101697.16;;;11.59;100.00
70781;BME280;72716;48.814;2.126;2024-01-30T15:27:03;101699.75;;;11.57;100.00
70781;BME280;72716;48.814;2.126;2024-01-30T15:29:28;101701.88;;;11.26;100.00
70781;BME280;72716;48.814;2.126;2024-01-30T15:31:54;101695.44;;;11.08;100.00
70781;BME280;72716;48.814;2.126;2024-01-30T15:34:19;101700.69;;;11.08;100.00
70781;BME280;72716;48.814;2.126;2024-01-30T15:36:46;101700.81;;;11.14;100.00
70781;BME280;72716;48.814;2.126;2024-01-30T15:39:11;101706.88;;;10.65;100.00
70781;BME280;72716;48.814;2.126;2024-01-30T15:41:36;101703.59;;;10.36;100.00
70781;BME280;72716;48.814;2.126;2024-01-30T15:44:02;101701.31;;;10.10;100.00
70781;BME280;72716;48.814;2.126;2024-01-30T15:46:28;101708.41;;;10.15;100.00
70781;BME280;72716;48.814;2.126;2024-01-30T15:48:53;101702.31;;;10.16;100.00
70781;BME280;72716;48.814;2.126;2024-01-30T15:51:19;101710.09;;;10.13;100.00
70781;BME280;72716;48.814;2.126;2024-01-30T15:53:44;101708.44;;;10.17;100.00
70781;BME280;72716;48.814;2.126;2024-01-30T15:56:09;101714.16;;;9.99;100.00
70781;BME280;72716;48.814;2.126;2024-01-30T15:58:35;101720.94;;;9.90;100.00
70781;BME280;72716;48.814;2.126;2024-01-30T16:01:00;101713.78;;;9.81;100.00
70781;BME280;72716;48.814;2.126;2024-01-30T16:03:27;101725.88;;;9.78;100.00
70781;BME280;72716;48.814;2.126;2024-01-30T16:05:52;101724.16;;;9.78;100.00
70781;BME280;72716;48.814;2.126;2024-01-30T16:08:17;101735.41;;;9.76;100.00
70781;BME280;72716;48.814;2.126;2024-01-30T16:10:43;101742.47;;;9.78;100.00
70781;BME280;72716;48.814;2.126;2024-01-30T16:13:08;101743.97;;;9.70;100.00
70781;BME280;72716;48.814;2.126;2024-01-30T16:15:33;101735.72;;;9.53;100.00
70781;BME280;72716;48.814;2.126;2024-01-30T16:17:59;101739.91;;;9.46;100.00
70781;BME280;72716;48.814;2.126;2024-01-30T16:20:24;101743.22;;;9.39;100.00
70781;BME280;72716;48.814;2.126;2024-01-30T16:22:49;101742.50;;;9.46;100.00
70781;BME280;72716;48.814;2.126;2024-01-30T16:25:18;101746.97;;;9.50;100.00
70781;BME280;72716;48.814;2.126;2024-01-30T16:27:44;101753.13;;;9.52;100.00
70781;BME280;72716;48.814;2.126;2024-01-30T16:30:10;101751.09;;;9.40;100.00
70781;BME280;72716;48.814;2.126;2024-01-30T16:32:35;101750.16;;;9.38;100.00
70781;BME280;72716;48.814;2.126;2024-01-30T16:35:00;101754.50;;;9.38;100.00
70781;BME280;72716;48.814;2.126;2024-01-30T16:37:26;101753.31;;;9.25;100.00
70781;BME280;72716;48.814;2.126;2024-01-30T16:39:52;101756.06;;;9.31;100.00
70781;BME280;72716;48.814;2.126;2024-01-30T16:42:17;101752.47;;;9.27;100.00
70781;BME280;72716;48.814;2.126;2024-01-30T16:44:43;101755.84;;;9.21;100.00
70781;BME280;72716;48.814;2.126;2024-01-30T16:47:09;101761.94;;;9.22;100.00
70781;BME280;72716;48.814;2.126;2024-01-30T16:49:34;101761.88;;;9.20;100.00
70781;BME280;72716;48.814;2.126;2024-01-30T16:52:00;101766.03;;;9.12;100.00
70781;BME280;72716;48.814;2.126;2024-01-30T16:54:25;101772.06;;;9.09;100.00
70781;BME280;72716;48.814;2.126;2024-01-30T16:56:51;101777.09;;;9.03;100.00
70781;BME280;72716;48.814;2.126;2024-01-30T16:59:17;101771.88;;;9.03;100.00
70781;BME280;72716;48.814;2.126;2024-01-30T17:01:43;101778.78;;;9.01;100.00
70781;BME280;72716;48.814;2.126;2024-01-30T17:04:17;101785.75;;;9.01;100.00
